Time;durP1;ratioP1;P1;durP2;ratioP2;P2;SDS_P1;SDS_P2;PMS_P1;PMS_P2;Temp;Humidity;BMP_temperature;BMP_pressure;BME280_temperature;BME280_humidity;BME280_pressure;Samples;Min_cycle;Max_cycle;Signal;HPM_P1;HPM_P2
2023/07/17 00:00:21;;;;;;;3.55;2.20;;;20.00;99.90;;;;;;5031655;28;20222;-56
2023/07/17 00:02:48;;;;;;;4.28;2.30;;;19.90;99.90;;;;;;5031755;28;20214;-54
2023/07/17 00:05:16;;;;;;;2.80;2.10;;;19.80;99.90;;;;;;5031633;28;20264;-57
2023/07/17 00:07:43;;;;;;;3.92;2.55;;;19.80;99.90;;;;;;5031392;28;20226;-55
2023/07/17 00:10:11;;;;;;;5.05;2.40;;;19.80;99.90;;;;;;5031797;28;20229;-54
2023/07/17 00:12:38;;;;;;;4.20;2.10;;;19.90;99.90;;;;;;5031685;28;20226;-54
2023/07/17 00:15:06;;;;;;;7.50;2.40;;;19.90;99.90;;;;;;5031760;28;20206;-55
2023/07/17 00:17:33;;;;;;;4.53;2.53;;;19.80;99.90;;;;;;5031286;28;20202;-56
2023/07/17 00:20:00;;;;;;;4.82;2.45;;;19.70;99.90;;;;;;5031894;28;20241;-58
2023/07/17 00:22:28;;;;;;;8.52;2.70;;;19.70;99.90;;;;;;5031279;28;20202;-57
2023/07/17 00:24:55;;;;;;;4.13;2.42;;;19.60;99.90;;;;;;5031706;28;20216;-57
2023/07/17 00:27:22;;;;;;;9.23;2.55;;;19.70;99.90;;;;;;5031169;28;20226;-59
2023/07/17 00:29:49;;;;;;;5.60;2.50;;;19.60;99.90;;;;;;5031639;28;20308;-57
2023/07/17 00:32:16;;;;;;;4.45;2.50;;;19.50;99.90;;;;;;5031689;28;20217;-57
2023/07/17 00:34:43;;;;;;;3.85;2.47;;;19.40;99.90;;;;;;5031481;28;20206;-58
2023/07/17 00:37:09;;;;;;;6.60;2.65;;;19.20;99.90;;;;;;5031279;28;20244;-58
2023/07/17 00:39:38;;;;;;;4.97;2.40;;;19.20;99.90;;;;;;5031267;28;20240;-58
2023/07/17 00:42:05;;;;;;;4.95;2.70;;;19.20;99.90;;;;;;5031268;28;20213;-58
2023/07/17 00:44:32;;;;;;;5.60;2.70;;;19.20;99.90;;;;;;5031211;28;20293;-58
2023/07/17 00:47:00;;;;;;;4.53;2.50;;;19.10;99.90;;;;;;5030815;28;20218;-58
2023/07/17 00:49:30;;;;;;;3.83;2.60;;;19.00;99.90;;;;;;5031033;28;20256;-58
2023/07/17 00:51:58;;;;;;;4.72;2.30;;;18.90;99.90;;;;;;5031538;28;20284;-58
2023/07/17 00:54:27;;;;;;;2.95;2.30;;;18.90;99.90;;;;;;5031223;28;20206;-58
2023/07/17 00:56:56;;;;;;;7.07;2.28;;;18.90;99.90;;;;;;5030988;28;20206;-57
2023/07/17 00:59:23;;;;;;;4.63;2.38;;;18.90;99.90;;;;;;5034382;28;20217;-58
2023/07/17 01:01:50;;;;;;;3.75;2.47;;;18.90;99.90;;;;;;5034989;28;20201;-57
2023/07/17 01:04:17;;;;;;;4.57;2.35;;;19.00;99.90;;;;;;5035273;28;20202;-58
2023/07/17 01:06:44;;;;;;;5.25;2.30;;;19.00;99.90;;;;;;5035380;28;20702;-59
2023/07/17 01:09:12;;;;;;;5.03;2.42;;;19.00;99.90;;;;;;5034925;28;20670;-58
2023/07/17 01:11:39;;;;;;;5.38;2.72;;;18.90;99.90;;;;;;5035039;28;20226;-58
2023/07/17 01:14:14;;;;;;;5.15;2.72;;;19.00;99.90;;;;;;5034865;28;20213;-58
2023/07/17 01:16:41;;;;;;;6.05;2.70;;;19.00;99.90;;;;;;5034525;28;20201;-59
2023/07/17 01:19:07;;;;;;;5.72;2.63;;;19.20;99.90;;;;;;5034970;28;20214;-58
2023/07/17 01:21:38;;;;;;;4.97;2.50;;;19.20;99.90;;;;;;5034761;28;20926;-58
2023/07/17 01:24:07;;;;;;;5.18;2.25;;;19.20;99.90;;;;;;5034751;28;20229;-59
2023/07/17 01:26:34;;;;;;;3.78;2.25;;;19.30;99.90;;;;;;5034488;28;20226;-59
2023/07/17 01:29:00;;;;;;;5.45;2.42;;;19.40;99.90;;;;;;5034575;28;20206;-58
2023/07/17 01:31:27;;;;;;;4.35;2.80;;;19.40;99.90;;;;;;5034913;28;20237;-57
2023/07/17 01:33:54;;;;;;;7.25;2.17;;;19.40;99.90;;;;;;5034702;28;20213;-58
2023/07/17 01:36:20;;;;;;;3.05;2.20;;;19.50;99.90;;;;;;5034315;28;20229;-58
2023/07/17 01:38:47;;;;;;;4.75;2.72;;;19.50;99.90;;;;;;5034558;28;20210;-57
2023/07/17 01:41:15;;;;;;;4.93;2.35;;;19.70;99.90;;;;;;5034356;28;20241;-58
2023/07/17 01:43:42;;;;;;;6.78;2.40;;;19.70;99.90;;;;;;5034867;28;20206;-58
2023/07/17 01:46:09;;;;;;;4.80;2.50;;;19.80;99.90;;;;;;5034406;28;20213;-59
2023/07/17 01:48:35;;;;;;;9.15;2.80;;;19.80;99.90;;;;;;5034184;28;20608;-58
2023/07/17 01:51:02;;;;;;;6.75;2.80;;;19.80;99.90;;;;;;5034220;28;20349;-58
2023/07/17 01:53:29;;;;;;;7.20;3.15;;;19.80;99.90;;;;;;5034154;28;20217;-56
2023/07/17 01:55:56;;;;;;;6.18;3.05;;;19.80;99.90;;;;;;5033729;28;20636;-57
2023/07/17 01:58:24;;;;;;;3.78;2.75;;;19.70;99.90;;;;;;5034036;28;20212;-58
2023/07/17 02:00:54;;;;;;;6.75;2.58;;;19.80;99.90;;;;;;5033864;28;20258;-58
2023/07/17 02:03:20;;;;;;;4.20;2.70;;;19.80;99.90;;;;;;5034056;28;20241;-58
2023/07/17 02:05:47;;;;;;;5.88;2.60;;;19.80;99.90;;;;;;5033807;28;20650;-57
2023/07/17 02:08:14;;;;;;;3.88;2.47;;;19.90;99.90;;;;;;5033812;28;20606;-58
2023/07/17 02:10:41;;;;;;;4.63;2.55;;;19.90;99.90;;;;;;5032768;28;20237;-58
2023/07/17 02:13:08;;;;;;;5.47;2.53;;;19.90;99.90;;;;;;5034006;28;20230;-58
2023/07/17 02:15:36;;;;;;;5.30;2.83;;;19.90;99.90;;;;;;5033985;28;20210;-58
2023/07/17 02:18:03;;;;;;;5.88;2.80;;;19.90;99.90;;;;;;5033889;28;20226;-58
2023/07/17 02:20:30;;;;;;;5.35;2.80;;;19.90;99.90;;;;;;5033511;28;20245;-58
2023/07/17 02:22:56;;;;;;;4.72;2.90;;;19.90;99.90;;;;;;5033605;28;20560;-58
2023/07/17 02:25:23;;;;;;;4.38;2.20;;;19.80;99.90;;;;;;5033648;28;20202;-58
2023/07/17 02:27:50;;;;;;;5.30;2.83;;;19.80;99.90;;;;;;5033451;28;20206;-57
2023/07/17 02:30:17;;;;;;;5.03;2.72;;;19.70;99.90;;;;;;5033387;28;20710;-57
2023/07/17 02:32:45;;;;;;;4.25;2.60;;;19.70;99.90;;;;;;5033770;28;20210;-58
2023/07/17 02:35:12;;;;;;;9.43;2.85;;;19.70;99.90;;;;;;5033357;28;20210;-57
2023/07/17 02:37:39;;;;;;;5.38;2.80;;;19.80;99.90;;;;;;5033028;28;20230;-58
2023/07/17 02:40:12;;;;;;;5.57;2.80;;;19.70;99.90;;;;;;5033164;28;20230;-58
2023/07/17 02:42:38;;;;;;;7.10;2.50;;;19.70;99.90;;;;;;5033524;28;20319;-57
2023/07/17 02:45:08;;;;;;;9.02;2.92;;;19.70;99.90;;;;;;5033252;28;20206;-59
2023/07/17 02:47:34;;;;;;;6.10;2.53;;;19.70;99.90;;;;;;5032895;28;20248;-57
2023/07/17 02:50:03;;;;;;;5.60;2.58;;;19.70;99.90;;;;;;5033341;28;20610;-58
2023/07/17 02:52:34;;;;;;;4.25;2.75;;;19.60;99.90;;;;;;5033068;28;20609;-57
2023/07/17 02:55:00;;;;;;;5.80;2.78;;;19.60;99.90;;;;;;5033003;28;20210;-57
2023/07/17 02:57:27;;;;;;;4.60;2.85;;;19.60;99.90;;;;;;5032682;28;20230;-58
2023/07/17 02:59:54;;;;;;;7.68;2.97;;;19.60;99.90;;;;;;5033230;28;20272;-58
2023/07/17 03:02:21;;;;;;;3.33;2.42;;;19.60;99.90;;;;;;5032998;28;20206;-57
2023/07/17 03:04:47;;;;;;;4.40;2.85;;;19.60;99.90;;;;;;5032927;28;20210;-57
2023/07/17 03:07:15;;;;;;;4.40;2.95;;;19.50;99.90;;;;;;5032993;28;20591;-57
2023/07/17 03:09:42;;;;;;;5.55;2.72;;;19.40;99.90;;;;;;5033030;28;20702;-57
2023/07/17 03:12:09;;;;;;;4.47;2.72;;;19.40;99.90;;;;;;5032927;28;20214;-56
2023/07/17 03:14:36;;;;;;;4.85;2.63;;;19.40;99.90;;;;;;5032762;28;20206;-58
2023/07/17 03:17:03;;;;;;;3.65;2.50;;;19.30;99.90;;;;;;5032265;28;20659;-57
2023/07/17 03:19:29;;;;;;;5.13;2.72;;;19.30;99.90;;;;;;5032262;28;20698;-57
2023/07/17 03:21:56;;;;;;;4.47;2.60;;;19.30;99.90;;;;;;5032595;28;20209;-58
2023/07/17 03:24:24;;;;;;;5.60;2.80;;;19.10;99.90;;;;;;5032558;28;20219;-57
2023/07/17 03:26:51;;;;;;;5.82;2.50;;;19.10;99.90;;;;;;5032390;28;20570;-59
2023/07/17 03:29:18;;;;;;;5.63;2.95;;;19.10;99.90;;;;;;5032439;28;20202;-58
2023/07/17 03:31:45;;;;;;;6.63;2.58;;;19.00;99.90;;;;;;5032180;28;20226;-58
2023/07/17 03:34:12;;;;;;;5.00;2.50;;;19.00;99.90;;;;;;5032174;28;20629;-58
2023/07/17 03:36:38;;;;;;;5.32;2.95;;;19.00;99.90;;;;;;5032114;28;20214;-58
2023/07/17 03:39:05;;;;;;;4.18;2.55;;;19.00;99.90;;;;;;5032167;28;20206;-58
2023/07/17 03:41:33;;;;;;;5.63;2.63;;;19.00;99.90;;;;;;5031860;28;20779;-57
2023/07/17 03:44:02;;;;;;;4.75;2.80;;;18.90;99.90;;;;;;5032066;28;20210;-57
2023/07/17 03:46:28;;;;;;;6.10;3.17;;;18.90;99.90;;;;;;5031684;28;20356;-57
2023/07/17 03:48:55;;;;;;;3.63;2.72;;;18.90;99.90;;;;;;5032073;28;20206;-58
2023/07/17 03:51:22;;;;;;;5.85;2.95;;;18.90;99.90;;;;;;5031992;28;20226;-55
2023/07/17 03:53:49;;;;;;;6.50;3.30;;;19.00;99.90;;;;;;5032091;28;20237;-57
2023/07/17 03:56:16;;;;;;;6.15;3.20;;;18.90;99.90;;;;;;5031502;28;20206;-57
2023/07/17 03:58:44;;;;;;;4.78;2.95;;;18.90;99.90;;;;;;5031732;28;20575;-58
2023/07/17 04:01:11;;;;;;;10.15;3.40;;;18.90;99.90;;;;;;5031575;28;20262;-58
2023/07/17 04:03:37;;;;;;;4.45;2.55;;;18.90;99.90;;;;;;5031910;28;20309;-58
2023/07/17 04:06:04;;;;;;;7.85;2.78;;;18.90;99.90;;;;;;5031510;28;20209;-57
2023/07/17 04:08:31;;;;;;;6.85;3.00;;;19.00;99.90;;;;;;5031793;28;20209;-57
2023/07/17 04:10:57;;;;;;;5.35;2.88;;;19.00;99.90;;;;;;5032655;28;20231;-58
2023/07/17 04:13:24;;;;;;;4.70;3.22;;;19.00;99.90;;;;;;5031851;28;20635;-58
2023/07/17 04:15:53;;;;;;;3.97;2.72;;;19.10;99.90;;;;;;5031174;28;20317;-59
2023/07/17 04:18:20;;;;;;;4.20;2.70;;;19.10;99.90;;;;;;5031603;28;20233;-58
2023/07/17 04:20:46;;;;;;;4.35;2.65;;;19.10;99.90;;;;;;5031320;28;20242;-57
2023/07/17 04:23:15;;;;;;;4.30;2.42;;;19.00;99.90;;;;;;5031717;28;20268;-58
2023/07/17 04:25:42;;;;;;;4.05;2.42;;;19.00;99.90;;;;;;5031321;28;20213;-58
2023/07/17 04:28:09;;;;;;;4.18;2.78;;;19.10;99.90;;;;;;5031331;28;20297;-57
2023/07/17 04:30:36;;;;;;;4.55;2.90;;;19.10;99.90;;;;;;5031303;28;20268;-58
2023/07/17 04:33:06;;;;;;;6.10;3.03;;;19.10;99.90;;;;;;5030943;28;20670;-58
2023/07/17 04:35:37;;;;;;;6.57;2.78;;;19.10;99.90;;;;;;5031224;28;20308;-58
2023/07/17 04:38:04;;;;;;;3.92;2.78;;;19.20;99.90;;;;;;5031198;28;20591;-58
2023/07/17 04:40:31;;;;;;;5.90;3.10;;;19.30;99.90;;;;;;5031366;28;20226;-58
2023/07/17 04:42:59;;;;;;;6.32;2.95;;;19.40;99.90;;;;;;5031348;28;20210;-58
2023/07/17 04:45:25;;;;;;;4.60;3.05;;;19.50;99.90;;;;;;5031273;28;20209;-58
2023/07/17 04:47:52;;;;;;;5.75;2.80;;;19.50;99.90;;;;;;5031456;28;20202;-59
2023/07/17 04:50:22;;;;;;;5.97;2.95;;;19.50;99.90;;;;;;5031358;28;20237;-58
2023/07/17 04:52:49;;;;;;;6.45;3.10;;;19.60;99.90;;;;;;5031421;28;20206;-59
2023/07/17 04:55:15;;;;;;;4.55;2.65;;;19.60;99.90;;;;;;5031188;28;20233;-58
2023/07/17 04:57:42;;;;;;;4.20;2.80;;;19.60;99.90;;;;;;5031482;28;20238;-58
2023/07/17 05:00:11;;;;;;;3.85;2.70;;;19.60;99.90;;;;;;5031571;28;20230;-60
2023/07/17 05:02:37;;;;;;;4.65;2.90;;;19.60;99.90;;;;;;5031449;28;20202;-57
2023/07/17 05:05:05;;;;;;;5.20;2.70;;;19.70;99.90;;;;;;5031168;28;20210;-58
2023/07/17 05:07:33;;;;;;;4.43;2.53;;;19.80;99.90;;;;;;5030726;28;20233;-59
2023/07/17 05:10:00;;;;;;;7.25;2.45;;;19.90;99.90;;;;;;5031069;28;20321;-58
2023/07/17 05:12:26;;;;;;;7.55;2.85;;;20.10;99.90;;;;;;5031329;28;20206;-58
2023/07/17 05:14:53;;;;;;;6.75;3.97;;;20.40;99.90;;;;;;5031262;28;20236;-58
2023/07/17 05:17:20;;;;;;;5.90;3.13;;;20.70;99.90;;;;;;5030843;28;20233;-59
2023/07/17 05:19:46;;;;;;;4.93;2.60;;;21.00;99.90;;;;;;5030608;28;20675;-60
2023/07/17 05:22:13;;;;;;;5.28;2.65;;;21.40;99.90;;;;;;5031141;28;20202;-58
2023/07/17 05:24:41;;;;;;;6.45;2.65;;;21.70;99.90;;;;;;5030928;28;20211;-59
2023/07/17 05:27:08;;;;;;;6.22;2.90;;;21.90;99.90;;;;;;5031033;28;20206;-59
2023/07/17 05:29:34;;;;;;;4.43;2.90;;;22.00;99.90;;;;;;5031111;28;20253;-58
2023/07/17 05:32:01;;;;;;;5.28;2.95;;;22.00;99.90;;;;;;5031100;28;20688;-60
2023/07/17 05:34:28;;;;;;;3.60;2.70;;;22.00;99.90;;;;;;5031051;28;20256;-58
2023/07/17 05:36:55;;;;;;;8.13;2.80;;;22.00;99.90;;;;;;5030625;28;20210;-58
2023/07/17 05:39:21;;;;;;;7.32;3.17;;;22.20;99.90;;;;;;5030849;28;20646;-58
2023/07/17 05:41:49;;;;;;;6.32;3.17;;;22.40;99.90;;;;;;5031022;28;20232;-58
2023/07/17 05:44:16;;;;;;;6.93;2.92;;;22.90;99.90;;;;;;5031136;28;20210;-58
2023/07/17 05:46:43;;;;;;;8.52;3.03;;;23.50;99.90;;;;;;5034330;28;20290;-59
2023/07/17 05:49:09;;;;;;;6.32;3.10;;;23.70;99.90;;;;;;5034487;28;20202;-58
2023/07/17 05:51:36;;;;;;;7.55;3.40;;;24.00;99.90;;;;;;5034220;28;20225;-62
2023/07/17 05:54:03;;;;;;;5.55;3.30;;;24.10;99.90;;;;;;5034816;28;20214;-56
2023/07/17 05:56:29;;;;;;;4.38;2.72;;;24.80;99.90;;;;;;5034118;28;20206;-58
2023/07/17 05:58:57;;;;;;;4.18;2.40;;;26.50;99.90;;;;;;5034363;28;20233;-60
2023/07/17 06:01:24;;;;;;;4.72;2.50;;;28.10;99.90;;;;;;5034410;28;20222;-58
2023/07/17 06:03:51;;;;;;;7.15;2.67;;;29.60;99.90;;;;;;5034269;28;20210;-59
2023/07/17 06:06:18;;;;;;;5.47;2.20;;;30.60;98.40;;;;;;5033649;28;20213;-59
2023/07/17 06:08:44;;;;;;;3.35;2.20;;;31.80;94.70;;;;;;5034171;28;20205;-59
2023/07/17 06:11:11;;;;;;;6.55;2.50;;;32.90;90.60;;;;;;5033919;28;20226;-59
2023/07/17 06:13:38;;;;;;;5.68;2.67;;;33.80;86.60;;;;;;5033886;28;20210;-58
2023/07/17 06:16:06;;;;;;;4.90;2.35;;;34.80;78.60;;;;;;5033510;28;20202;-58
2023/07/17 06:18:33;;;;;;;3.53;2.90;;;35.60;73.20;;;;;;5033569;28;20222;-58
2023/07/17 06:21:00;;;;;;;4.70;2.22;;;36.20;69.30;;;;;;5033984;28;20245;-56
2023/07/17 06:23:27;;;;;;;7.57;2.60;;;36.90;65.80;;;;;;5033732;28;20301;-56
2023/07/17 06:25:54;;;;;;;4.10;2.33;;;37.20;63.40;;;;;;5033525;28;20639;-56
2023/07/17 06:28:20;;;;;;;4.93;2.22;;;37.90;61.20;;;;;;5033779;28;20213;-55
2023/07/17 06:30:47;;;;;;;6.72;2.38;;;38.70;57.70;;;;;;5033472;28;20237;-55
2023/07/17 06:33:16;;;;;;;5.30;2.40;;;38.60;56.40;;;;;;5033681;28;20690;-55
2023/07/17 06:35:44;;;;;;;4.55;2.47;;;37.90;56.80;;;;;;5033597;28;20256;-55
2023/07/17 06:38:11;;;;;;;5.32;2.60;;;36.90;57.60;;;;;;5033399;28;20226;-53
2023/07/17 06:40:38;;;;;;;4.32;2.28;;;35.90;58.90;;;;;;5034050;28;20230;-60
2023/07/17 06:43:05;;;;;;;6.13;2.33;;;34.60;62.20;;;;;;5033351;28;20205;-55
2023/07/17 06:45:32;;;;;;;4.72;2.78;;;33.50;63.80;;;;;;5033265;28;20666;-57
2023/07/17 06:47:59;;;;;;;4.70;2.40;;;33.10;65.80;;;;;;5032741;28;20213;-55
2023/07/17 06:50:27;;;;;;;5.18;2.80;;;33.50;65.60;;;;;;5033235;28;20226;-56
2023/07/17 06:52:53;;;;;;;5.10;2.47;;;33.80;65.50;;;;;;5033112;28;20288;-56
2023/07/17 06:55:20;;;;;;;4.18;2.50;;;33.70;64.40;;;;;;5032688;28;20441;-54
2023/07/17 06:57:47;;;;;;;5.82;2.65;;;33.40;64.70;;;;;;5032576;28;20206;-55
2023/07/17 07:00:14;;;;;;;9.35;2.60;;;33.00;65.30;;;;;;5032609;28;20725;-54
2023/07/17 07:02:41;;;;;;;4.93;2.47;;;33.00;66.50;;;;;;5032696;28;20690;-54
2023/07/17 07:05:08;;;;;;;5.93;2.50;;;33.80;64.90;;;;;;5034064;28;20285;-55
2023/07/17 07:07:36;;;;;;;5.32;2.05;;;35.30;62.20;;;;;;5032688;28;20225;-56
2023/07/17 07:10:03;;;;;;;6.53;2.40;;;37.10;58.10;;;;;;5032685;28;20222;-56
2023/07/17 07:12:30;;;;;;;5.88;2.80;;;38.80;54.10;;;;;;5032491;28;20301;-55
2023/07/17 07:14:57;;;;;;;5.10;2.67;;;40.30;51.20;;;;;;5032361;28;20209;-56
2023/07/17 07:17:24;;;;;;;5.28;2.38;;;41.20;50.00;;;;;;5032474;28;20213;-55
2023/07/17 07:19:51;;;;;;;4.30;2.55;;;42.20;48.10;;;;;;5032351;28;20316;-55
2023/07/17 07:22:18;;;;;;;6.55;2.88;;;43.00;47.40;;;;;;5032373;28;20296;-56
2023/07/17 07:24:46;;;;;;;6.05;2.22;;;43.90;45.40;;;;;;5032334;28;20364;-55
2023/07/17 07:27:13;;;;;;;5.18;2.50;;;44.70;43.10;;;;;;5031951;28;20647;-58
2023/07/17 07:29:40;;;;;;;5.35;2.35;;;45.30;41.90;;;;;;5032398;28;20202;-57
2023/07/17 07:32:07;;;;;;;3.72;2.30;;;45.80;41.40;;;;;;5032493;28;20212;-55
2023/07/17 07:34:34;;;;;;;4.07;2.25;;;46.00;39.90;;;;;;5032373;28;20217;-56
2023/07/17 07:37:02;;;;;;;4.10;2.40;;;46.20;39.40;;;;;;5031803;28;20712;-56
2023/07/17 07:39:29;;;;;;;4.80;2.30;;;46.40;38.80;;;;;;5031846;28;20218;-56
2023/07/17 07:41:57;;;;;;;5.82;2.40;;;46.50;38.30;;;;;;5031988;28;20310;-57
2023/07/17 07:44:23;;;;;;;5.43;2.42;;;46.80;38.10;;;;;;5032086;28;20227;-57
2023/07/17 07:46:50;;;;;;;6.20;2.50;;;47.40;37.50;;;;;;5031624;28;20206;-53
2023/07/17 07:49:18;;;;;;;6.63;2.35;;;47.70;36.50;;;;;;5031604;28;20198;-53
2023/07/17 07:51:45;;;;;;;6.57;2.38;;;47.70;36.20;;;;;;5031626;28;20242;-53
2023/07/17 07:54:12;;;;;;;5.05;2.33;;;47.20;36.20;;;;;;5031721;28;20217;-55
2023/07/17 07:56:38;;;;;;;4.80;2.40;;;46.90;36.60;;;;;;5031401;28;20305;-55
2023/07/17 07:59:06;;;;;;;4.72;2.90;;;47.00;36.60;;;;;;5031835;28;20232;-54
2023/07/17 08:01:33;;;;;;;4.32;2.55;;;47.50;34.50;;;;;;5031730;28;20229;-57
2023/07/17 08:04:00;;;;;;;4.40;2.83;;;47.80;33.90;;;;;;5028655;28;20289;-60
2023/07/17 08:06:27;;;;;;;5.45;2.85;;;47.20;33.50;;;;;;5031059;28;20212;-54
2023/07/17 08:08:53;;;;;;;7.13;2.95;;;46.50;33.70;;;;;;5030607;28;20208;-56
2023/07/17 08:11:22;;;;;;;3.92;2.70;;;45.90;34.60;;;;;;5031084;28;20233;-56
2023/07/17 08:13:48;;;;;;;2.88;2.53;;;45.90;35.00;;;;;;5031100;28;20217;-55
2023/07/17 08:16:16;;;;;;;6.00;2.83;;;45.80;35.50;;;;;;5031370;28;20605;-55
2023/07/17 08:18:43;;;;;;;7.30;2.90;;;45.80;35.10;;;;;;5031407;28;20230;-54
2023/07/17 08:21:10;;;;;;;4.72;3.13;;;45.10;35.00;;;;;;5031143;28;20234;-56
2023/07/17 08:23:36;;;;;;;4.03;2.90;;;44.50;34.60;;;;;;5030979;28;20225;-56
2023/07/17 08:26:04;;;;;;;5.80;2.95;;;44.20;34.90;;;;;;5031036;28;20209;-54
2023/07/17 08:28:31;;;;;;;6.53;2.88;;;44.20;34.80;;;;;;5031093;28;20206;-59
2023/07/17 08:30:57;;;;;;;4.70;3.08;;;44.50;34.40;;;;;;5031333;28;20229;-55
2023/07/17 08:33:26;;;;;;;6.25;3.20;;;44.00;33.80;;;;;;5031122;28;20212;-55
2023/07/17 08:35:52;;;;;;;5.13;2.90;;;42.90;35.50;;;;;;5031319;28;20212;-55
2023/07/17 08:38:19;;;;;;;5.35;3.40;;;43.00;35.40;;;;;;5030748;28;20212;-56
2023/07/17 08:40:51;;;;;;;6.95;3.10;;;42.60;35.80;;;;;;5031303;28;20293;-56
2023/07/17 08:43:18;;;;;;;9.40;3.15;;;42.60;35.80;;;;;;5031118;28;20290;-55
2023/07/17 08:45:46;;;;;;;5.57;3.28;;;43.00;34.30;;;;;;5031100;28;20213;-55
2023/07/17 08:48:14;;;;;;;6.30;3.35;;;43.30;33.90;;;;;;5031106;28;20213;-54
2023/07/17 08:50:42;;;;;;;8.02;3.03;;;43.20;33.90;;;;;;5030751;28;20653;-55
2023/07/17 08:53:09;;;;;;;5.85;3.25;;;42.80;34.20;;;;;;5031053;28;20559;-55
2023/07/17 08:55:36;;;;;;;3.90;3.03;;;41.90;34.80;;;;;;5030862;28;20206;-57
2023/07/17 08:58:04;;;;;;;4.82;2.88;;;40.70;35.20;;;;;;5030964;28;20210;-55
2023/07/17 09:00:32;;;;;;;6.28;3.30;;;39.20;37.40;;;;;;5032355;28;20233;-55
2023/07/17 09:02:59;;;;;;;6.85;3.28;;;38.10;38.90;;;;;;5033375;28;20237;-55
2023/07/17 09:05:26;;;;;;;7.75;3.03;;;37.10;39.70;;;;;;5031235;28;20210;-56
2023/07/17 09:07:55;;;;;;;5.90;3.33;;;36.50;40.00;;;;;;5030965;28;20214;-55
2023/07/17 09:10:23;;;;;;;5.25;3.40;;;36.00;40.50;;;;;;5031111;28;20576;-55
2023/07/17 09:12:53;;;;;;;8.02;3.45;;;35.40;41.40;;;;;;5030500;28;20210;-59
2023/07/17 09:15:20;;;;;;;4.80;3.35;;;34.80;42.20;;;;;;5030989;28;20254;-55
2023/07/17 09:17:46;;;;;;;5.03;3.22;;;34.30;43.10;;;;;;5030528;28;20210;-56
2023/07/17 09:20:17;;;;;;;4.85;3.33;;;33.90;43.70;;;;;;5033036;28;20234;-54
2023/07/17 09:22:44;;;;;;;4.78;3.25;;;33.70;43.80;;;;;;5034759;28;20249;-54
2023/07/17 09:25:14;;;;;;;4.28;3.30;;;33.60;43.50;;;;;;5034878;28;20246;-55
2023/07/17 09:27:46;;;;;;;5.18;3.00;;;33.50;44.00;;;;;;5034542;28;20225;-54
2023/07/17 09:30:14;;;;;;;6.78;2.88;;;33.20;43.60;;;;;;5034569;28;20231;-55
2023/07/17 09:32:42;;;;;;;6.07;2.78;;;33.00;43.80;;;;;;5034020;28;20666;-54
2023/07/17 09:35:12;;;;;;;7.32;3.33;;;32.90;43.90;;;;;;5034477;28;20206;-54
2023/07/17 09:37:41;;;;;;;6.03;3.42;;;32.70;44.80;;;;;;5034091;28;20713;-55
2023/07/17 09:40:09;;;;;;;7.45;3.00;;;32.70;44.00;;;;;;5034536;28;20230;-54
2023/07/17 09:42:38;;;;;;;6.05;3.10;;;32.70;44.40;;;;;;5034189;28;20691;-54
2023/07/17 09:45:06;;;;;;;5.70;3.55;;;32.80;44.10;;;;;;5033943;28;20237;-55
2023/07/17 09:47:33;;;;;;;5.95;3.38;;;32.70;44.20;;;;;;5033751;28;20209;-56
2023/07/17 09:50:01;;;;;;;8.88;3.30;;;32.60;44.30;;;;;;5033802;28;20222;-55
2023/07/17 09:52:29;;;;;;;5.00;3.25;;;32.40;43.90;;;;;;5034264;28;20229;-56
2023/07/17 09:54:57;;;;;;;6.78;3.50;;;32.30;44.40;;;;;;5034011;28;20646;-54
2023/07/17 09:57:28;;;;;;;4.50;3.10;;;32.40;44.10;;;;;;5033662;28;20368;-55
2023/07/17 09:59:59;;;;;;;6.85;3.35;;;32.60;44.30;;;;;;5033590;28;20301;-54
2023/07/17 10:02:30;;;;;;;7.25;2.90;;;32.80;44.30;;;;;;5033857;28;20221;-56
2023/07/17 10:05:00;;;;;;;8.18;3.50;;;32.90;44.50;;;;;;5033815;28;20210;-54
2023/07/17 10:07:29;;;;;;;4.45;3.33;;;33.00;43.90;;;;;;5033648;28;20241;-54
2023/07/17 10:09:59;;;;;;;6.97;3.53;;;33.20;44.50;;;;;;5033423;28;20309;-56
2023/07/17 10:12:26;;;;;;;6.20;3.30;;;33.50;43.90;;;;;;5033677;28;20214;-56
2023/07/17 10:14:53;;;;;;;5.10;2.97;;;33.70;43.10;;;;;;5033448;28;20211;-53
2023/07/17 10:17:32;;;;;;;5.00;3.15;;;33.90;42.90;;;;;;5033519;28;20210;-55
2023/07/17 10:20:00;;;;;;;6.65;3.15;;;34.10;42.80;;;;;;5033422;28;20230;-54
2023/07/17 10:22:34;;;;;;;6.60;3.55;;;34.10;43.30;;;;;;5033244;28;20210;-56
2023/07/17 10:25:09;;;;;;;5.57;3.53;;;33.90;44.00;;;;;;5033513;28;20301;-55
2023/07/17 10:27:38;;;;;;;6.15;3.40;;;33.50;44.60;;;;;;5033121;28;20311;-56
2023/07/17 10:30:22;;;;;;;6.30;3.35;;;33.20;45.30;;;;;;5032589;28;20566;-57
2023/07/17 10:32:52;;;;;;;6.30;3.90;;;33.10;45.10;;;;;;5032880;28;20202;-57
2023/07/17 10:35:21;;;;;;;6.80;3.50;;;32.90;45.30;;;;;;5033392;28;20209;-57
2023/07/17 10:37:48;;;;;;;4.32;3.17;;;32.70;45.50;;;;;;5032875;28;20210;-57
2023/07/17 10:40:28;;;;;;;6.40;3.35;;;32.40;46.00;;;;;;5033284;28;20240;-55
2023/07/17 10:42:55;;;;;;;7.38;4.10;;;32.00;46.50;;;;;;5033652;28;20206;-55
2023/07/17 10:45:22;;;;;;;5.43;3.35;;;31.70;47.30;;;;;;5033011;28;20225;-54
2023/07/17 10:47:51;;;;;;;6.25;3.78;;;31.40;47.20;;;;;;5032892;28;20238;-56
2023/07/17 10:50:18;;;;;;;4.60;3.42;;;31.10;48.00;;;;;;5033328;28;20226;-57
2023/07/17 10:52:44;;;;;;;6.43;3.42;;;31.00;48.20;;;;;;5032647;28;20629;-58
2023/07/17 10:55:11;;;;;;;5.95;3.17;;;31.00;48.00;;;;;;5032932;28;20206;-56
2023/07/17 10:57:38;;;;;;;4.07;3.10;;;31.10;48.60;;;;;;5032513;28;20202;-58
2023/07/17 11:00:06;;;;;;;6.30;3.40;;;31.10;48.50;;;;;;5032569;28;20258;-59
2023/07/17 11:02:33;;;;;;;6.80;3.58;;;31.20;47.90;;;;;;5033169;28;20210;-58
2023/07/17 11:05:03;;;;;;;5.40;3.67;;;31.20;48.30;;;;;;5032581;28;20210;-58
2023/07/17 11:07:33;;;;;;;7.72;3.88;;;31.30;48.50;;;;;;5032605;28;20727;-58
2023/07/17 11:10:00;;;;;;;6.18;3.60;;;31.10;48.80;;;;;;5032644;28;20222;-58
2023/07/17 11:12:27;;;;;;;5.20;3.60;;;31.00;48.90;;;;;;5032261;28;20210;-57
2023/07/17 11:14:54;;;;;;;4.90;3.53;;;30.80;49.60;;;;;;5032543;28;20206;-55
2023/07/17 11:17:21;;;;;;;7.32;3.78;;;30.80;49.50;;;;;;5032482;28;20234;-55
2023/07/17 11:19:48;;;;;;;7.60;3.78;;;30.90;49.60;;;;;;5033136;28;20241;-58
2023/07/17 11:22:16;;;;;;;7.25;3.90;;;30.70;49.50;;;;;;5032782;28;20233;-54
2023/07/17 11:24:42;;;;;;;7.88;4.05;;;30.80;49.70;;;;;;5032239;28;20210;-55
2023/07/17 11:27:09;;;;;;;6.30;3.30;;;30.60;50.20;;;;;;5031678;28;20233;-54
2023/07/17 11:29:39;;;;;;;7.00;3.45;;;30.60;50.20;;;;;;5032384;28;20204;-56
2023/07/17 11:32:06;;;;;;;5.82;3.63;;;30.50;50.20;;;;;;5032336;28;20210;-55
2023/07/17 11:34:36;;;;;;;5.40;3.70;;;30.60;50.20;;;;;;5032502;28;20207;-58
2023/07/17 11:37:03;;;;;;;9.50;3.80;;;30.90;49.90;;;;;;5032145;28;20735;-55
2023/07/17 11:39:32;;;;;;;5.90;3.70;;;31.00;50.30;;;;;;5032123;28;20226;-56
2023/07/17 11:41:59;;;;;;;5.15;3.75;;;30.70;50.50;;;;;;5032318;28;20210;-57
2023/07/17 11:44:29;;;;;;;7.00;3.63;;;30.20;51.70;;;;;;5030722;28;20677;-56
2023/07/17 11:46:57;;;;;;;6.68;3.85;;;29.90;52.20;;;;;;5029719;28;20229;-58
2023/07/17 11:49:26;;;;;;;6.50;3.70;;;30.10;52.40;;;;;;5021848;28;20569;-56
2023/07/17 11:51:52;;;;;;;7.43;3.88;;;30.40;52.20;;;;;;5031478;28;20670;-61
2023/07/17 11:54:19;;;;;;;9.00;3.67;;;30.60;51.80;;;;;;5031626;28;20670;-55
2023/07/17 11:56:47;;;;;;;6.57;3.83;;;30.70;51.20;;;;;;5031526;28;20620;-61
2023/07/17 11:59:18;;;;;;;6.55;3.63;;;30.70;51.40;;;;;;5031510;28;20678;-57
2023/07/17 12:01:45;;;;;;;4.40;3.30;;;30.40;51.50;;;;;;5031631;28;20229;-58
2023/07/17 12:04:19;;;;;;;7.38;4.10;;;30.30;52.20;;;;;;5031916;28;20572;-58
2023/07/17 12:06:46;;;;;;;6.50;3.90;;;30.40;52.80;;;;;;5031967;28;20212;-57
2023/07/17 12:09:13;;;;;;;6.28;3.53;;;30.30;52.30;;;;;;5031389;28;20272;-58
2023/07/17 12:11:43;;;;;;;9.15;3.72;;;30.10;52.50;;;;;;5032013;28;20236;-58
2023/07/17 12:14:13;;;;;;;7.38;3.85;;;30.00;52.90;;;;;;5031663;28;20210;-52
2023/07/17 12:16:40;;;;;;;6.35;3.92;;;30.10;52.40;;;;;;5031977;28;20202;-52
2023/07/17 12:19:07;;;;;;;4.68;3.70;;;30.20;52.50;;;;;;5031761;28;20205;-54
2023/07/17 12:21:34;;;;;;;5.90;3.60;;;30.40;52.60;;;;;;5031994;28;20615;-53
2023/07/17 12:24:01;;;;;;;5.85;3.22;;;30.50;51.00;;;;;;5031942;28;20261;-52
2023/07/17 12:26:27;;;;;;;4.22;3.17;;;30.70;51.60;;;;;;5032461;28;20210;-53
2023/07/17 12:28:54;;;;;;;5.28;3.28;;;30.90;51.00;;;;;;5032833;28;20662;-54
2023/07/17 12:31:22;;;;;;;6.45;3.80;;;30.80;51.50;;;;;;5031978;28;20226;-53
2023/07/17 12:33:49;;;;;;;6.25;3.90;;;30.70;51.70;;;;;;5031684;28;20337;-52
2023/07/17 12:36:15;;;;;;;7.80;3.75;;;30.60;52.10;;;;;;5031417;28;20210;-55
2023/07/17 12:38:42;;;;;;;7.70;3.33;;;30.50;51.90;;;;;;5031739;28;20209;-53
2023/07/17 12:41:09;;;;;;;6.13;3.33;;;30.40;52.60;;;;;;5031523;28;20238;-53
2023/07/17 12:43:35;;;;;;;6.28;3.47;;;30.20;52.50;;;;;;5031492;28;20206;-54
2023/07/17 12:46:02;;;;;;;6.45;3.53;;;30.10;53.20;;;;;;5031199;28;20214;-53
2023/07/17 12:48:30;;;;;;;6.43;3.25;;;30.20;52.40;;;;;;5031703;28;20213;-52